| time (UTC) | temp F | wind direction | speed MPH | gust MPH | rain 1hr in | rain 24hr in | rain mn in | humidity % | barometer mb |
| 20260508151133 | 54 | 341 | 1.0 | 1.0 | 0.00 | 0.09 | 0.09 | 54 | |
| 20260508150630 | 54 | 300 | 0.0 | 2.0 | 0.00 | 0.09 | 0.09 | 52 | |
| 20260508150127 | 53 | 287 | 0.0 | 1.0 | 0.00 | 0.09 | 0.09 | 52 | |
| 20260508145623 | 53 | 324 | 0.0 | 2.0 | 0.00 | 0.09 | 0.09 | 52 | |
| 20260508145119 | 54 | 351 | 3.0 | 5.0 | 0.00 | 0.09 | 0.09 | 51 | |
| 20260508144617 | 52 | 256 | 2.0 | 3.0 | 0.00 | 0.09 | 0.09 | 56 | |
| 20260508144114 | 51 | 75 | 0.0 | 1.0 | 0.00 | 0.09 | 0.09 | 56 | |
| 20260508143612 | 51 | 334 | 1.0 | 2.0 | 0.00 | 0.09 | 0.09 | 58 | |
| 20260508143108 | 52 | 31 | 1.0 | 2.0 | 0.00 | 0.09 | 0.09 | 55 | |
| 20260508142605 | 52 | 6 | 2.0 | 2.0 | 0.00 | 0.09 | 0.09 | 58 | |
| 20260508142102 | 51 | 203 | 0.0 | 3.0 | 0.00 | 0.09 | 0.09 | 60 | |
| 20260508141558 | 50 | 356 | 0.0 | 0.0 | 0.00 | 0.09 | 0.09 | 65 | |
| 20260508141056 | 50 | 44 | 1.0 | 5.0 | 0.00 | 0.09 | 0.09 | 67 | |
| 20260508140553 | 51 | 71 | 1.0 | 5.0 | 0.00 | 0.09 | 0.09 | 63 | |
| 20260508140050 | 50 | 344 | 0.0 | 0.0 | 0.00 | 0.09 | 0.09 | 68 | |
| 20260508135545 | 50 | 26 | 1.0 | 1.0 | 0.00 | 0.09 | 0.09 | 65 | |
| 20260508135042 | 50 | 343 | 0.0 | 1.0 | 0.00 | 0.09 | 0.09 | 68 | |
| 20260508134538 | 50 | 349 | 0.0 | 2.0 | 0.00 | 0.09 | 0.09 | 69 | |
| 20260508134035 | 50 | 265 | 1.0 | 1.0 | 0.00 | 0.09 | 0.09 | 70 | |
| 20260508133532 | 49 | 256 | 1.0 | 2.0 | 0.00 | 0.09 | 0.09 | 70 | |
| 20260508133029 | 49 | 253 | 0.0 | 1.0 | 0.00 | 0.09 | 0.09 | 73 | |
| 20260508132527 | 48 | 285 | 1.0 | 3.0 | 0.00 | 0.09 | 0.09 | 74 | |
| 20260508132024 | 47 | 128 | 0.0 | 0.0 | 0.00 | 0.09 | 0.09 | 76 | |
| 20260508131519 | 47 | 0 | 0.0 | 2.0 | 0.00 | 0.09 | 0.09 | 76 | |
| 20260508131016 | 47 | 315 | 0.0 | 1.0 | 0.00 | 0.09 | 0.09 | 77 | |
| 20260508130513 | 46 | 342 | 0.0 | 1.0 | 0.00 | 0.09 | 0.09 | 78 | |
| 20260508130009 | 45 | 325 | 0.0 | 2.0 | 0.00 | 0.09 | 0.09 | 80 | |
| 20260508125505 | 44 | 284 | 0.0 | 2.0 | 0.00 | 0.09 | 0.09 | 82 | |
| 20260508125003 | 43 | 344 | 0.0 | 2.0 | 0.00 | 0.09 | 0.09 | 84 | |
| 20260508124500 | 43 | 342 | 0.0 | 2.0 | 0.00 | 0.09 | 0.09 | 85 | |
| 20260508123957 | 42 | 338 | 0.0 | 0.0 | 0.00 | 0.09 | 0.09 | 86 | |
| 20260508123456 | 41 | 37 | 0.0 | 2.0 | 0.00 | 0.09 | 0.09 | 87 | |
| 20260508122952 | 41 | 331 | 0.0 | 1.0 | 0.00 | 0.09 | 0.09 | 89 | |
| 20260508122449 | 41 | 333 | 0.0 | 1.0 | 0.00 | 0.09 | 0.09 | 91 | |
| 20260508121946 | 40 | 347 | 0.0 | 0.0 | 0.00 | 0.09 | 0.09 | 92 | |
| 20260508121444 | 39 | 345 | 0.0 | 0.0 | 0.07 | 0.09 | 0.09 | 92 | |
| 20260508120942 | 38 | 350 | 0.0 | 0.0 | 0.07 | 0.09 | 0.09 | 92 | |
| 20260508120439 | 38 | 359 | 0.0 | 0.0 | 0.00 | 0.08 | 0.08 | 92 | |
| 20260508115937 | 38 | 0 | 0.0 | 1.0 | 0.00 | 0.08 | 0.08 | 93 | |
| 20260508115435 | 37 | 282 | 0.0 | 2.0 | 0.00 | 0.08 | 0.08 | 93 | |
| 20260508114931 | 37 | 304 | 0.0 | 1.0 | 0.00 | 0.08 | 0.08 | 93 | |
| 20260508114428 | 37 | 21 | 0.0 | 1.0 | 0.05 | 0.08 | 0.08 | 93 | |
| 20260508113925 | 36 | 332 | 0.0 | 1.0 | 0.00 | 0.07 | 0.07 | 93 | |
| 20260508113423 | 36 | 354 | 1.0 | 5.0 | 0.00 | 0.07 | 0.07 | 92 | |
| 20260508112919 | 36 | 328 | 1.0 | 5.0 | 0.07 | 0.07 | 0.07 | 92 | |
| 20260508112416 | 37 | 7 | 1.0 | 7.0 | 0.19 | 0.07 | 0.07 | 91 | |
| 20260508111913 | 38 | 64 | 1.0 | 7.0 | 0.17 | 0.06 | 0.06 | 90 | |
| 20260508111410 | 38 | 54 | 3.0 | 5.0 | 0.12 | 0.04 | 0.04 | 89 | |
| 20260508110907 | 40 | 138 | 3.0 | 6.0 | 0.05 | 0.02 | 0.02 | 88 | |
| 20260508110405 | 41 | 65 | 1.0 | 2.0 | 0.00 | 0.01 | 0.01 | 89 | |
| 20260508105904 | 41 | 0 | 0.0 | 0.0 | 0.07 | 0.01 | 0.01 | 88 | |
| 20260508105401 | 41 | 21 | 0.0 | 1.0 | 0.07 | 0.01 | 0.01 | 87 | |
| 20260508104858 | 41 | 23 | 0.0 | 1.0 | 0.00 | 0.00 | 0.00 | 87 | |
| 20260508104355 | 41 | 12 | 0.0 | 2.0 | 0.00 | 0.00 | 0.00 | 86 | |
| 20260508103852 | 41 | 26 | 0.0 | 1.0 | 0.00 | 0.00 | 0.00 | 86 | |
| 20260508103349 | 41 | 5 | 0.0 | 1.0 | 0.00 | 0.00 | 0.00 | 86 | |
| 20260508102846 | 41 | 12 | 0.0 | 0.0 | 0.00 | 0.00 | 0.00 | 86 | |
| 20260508102345 | 41 | 31 | 1.0 | 2.0 | 0.00 | 0.00 | 0.00 | 87 | |
| 20260508101842 | 41 | 17 | 0.0 | 1.0 | 0.00 | 0.00 | 0.00 | 86 | |
| 20260508101339 | 41 | 8 | 0.0 | 0.0 | 0.00 | 0.00 | 0.00 | 86 | |
| 20260508100837 | 41 | 354 | 0.0 | 0.0 | 0.00 | 0.00 | 0.00 | 86 | |
| 20260508100335 | 41 | 29 | 1.0 | 3.0 | 0.00 | 0.00 | 0.00 | 86 | |
| 20260508095830 | 41 | 0 | 1.0 | 1.0 | 0.00 | 0.00 | 0.00 | 85 | |
| 20260508095328 | 41 | 64 | 2.0 | 3.0 | 0.00 | 0.00 | 0.00 | 85 | |
| 20260508094825 | 41 | 17 | 0.0 | 1.0 | 0.00 | 0.00 | 0.00 | 85 | |
| 20260508094322 | 41 | 37 | 0.0 | 2.0 | 0.00 | 0.00 | 0.00 | 85 | |
| 20260508093819 | 41 | 36 | 1.0 | 5.0 | 0.00 | 0.00 | 0.00 | 85 | |
| 20260508093316 | 41 | 358 | 0.0 | 1.0 | 0.00 | 0.00 | 0.00 | 85 | |
| 20260508092814 | 41 | 5 | 1.0 | 2.0 | 0.00 | 0.00 | 0.00 | 85 | |
| 20260508092314 | 41 | 27 | 0.0 | 1.0 | 0.00 | 0.00 | 0.00 | 84 | |
| 20260508091810 | 41 | 351 | 0.0 | 1.0 | 0.00 | 0.00 | 0.00 | 84 | |
| 20260508091306 | 41 | 352 | 0.0 | 1.0 | 0.00 | 0.00 | 0.00 | 83 | |
| 20260508090804 | 41 | 25 | 0.0 | 2.0 | 0.00 | 0.00 | 0.00 | 83 | |
| 20260508090302 | 41 | 320 | 1.0 | 2.0 | 0.00 | 0.00 | 0.00 | 82 | |
| 20260508085757 | 41 | 1 | 0.0 | 1.0 | 0.00 | 0.00 | 0.00 | 81 | |
| 20260508085254 | 41 | 359 | 0.0 | 2.0 | 0.00 | 0.00 | 0.00 | 81 | |
| 20260508084750 | 41 | 17 | 0.0 | 0.0 | 0.00 | 0.00 | 0.00 | 81 | |
| 20260508084248 | 41 | 1 | 0.0 | 1.0 | 0.00 | 0.00 | 0.00 | 80 | |
| 20260508083745 | 40 | 16 | 0.0 | 0.0 | 0.00 | 0.00 | 0.00 | 81 | |
| 20260508083242 | 40 | 358 | 0.0 | 0.0 | 0.00 | 0.00 | 0.00 | 82 | |
| 20260508082737 | 40 | 0 | 0.0 | 0.0 | 0.00 | 0.00 | 0.00 | 82 | |
| 20260508082235 | 40 | 6 | 0.0 | 1.0 | 0.00 | 0.00 | 0.00 | 82 | |
| 20260508081732 | 40 | 334 | 0.0 | 0.0 | 0.00 | 0.00 | 0.00 | 82 | |
| 20260508081228 | 40 | 9 | 0.0 | 0.0 | 0.00 | 0.00 | 0.00 | 82 | |
| 20260508080725 | 40 | 349 | 0.0 | 0.0 | 0.00 | 0.00 | 0.00 | 82 | |
| 20260508080224 | 40 | 347 | 0.0 | 0.0 | 0.00 | 0.00 | 0.00 | 81 | |
| 20260508075720 | 40 | 10 | 0.0 | 0.0 | 0.00 | 0.00 | 0.00 | 81 | |
| 20260508075217 | 40 | 9 | 0.0 | 0.0 | 0.00 | 0.00 | 0.00 | 82 | |
| 20260508074715 | 40 | 1 | 0.0 | 0.0 | 0.00 | 0.00 | 0.00 | 83 | |
| 20260508074212 | 40 | 344 | 0.0 | 0.0 | 0.00 | 0.00 | 0.00 | 83 | |
| 20260508073708 | 39 | 4 | 0.0 | 0.0 | 0.00 | 0.00 | 0.00 | 84 | |
| 20260508073207 | 39 | 357 | 0.0 | 0.0 | 0.00 | 0.00 | 0.00 | 84 | |
| 20260508072702 | 39 | 356 | 0.0 | 0.0 | 0.00 | 0.00 | 0.00 | 85 | |
| 20260508072159 | 39 | 4 | 0.0 | 0.0 | 0.00 | 0.00 | 0.00 | 85 | |
| 20260508071657 | 39 | 8 | 0.0 | 0.0 | 0.00 | 0.00 | 0.00 | 86 | |
| 20260508071155 | 39 | 356 | 0.0 | 0.0 | 0.00 | 0.00 | 0.00 | 87 | |
| 20260508070652 | 39 | 6 | 0.0 | 0.0 | 0.00 | 0.00 | 0.00 | 87 | |
| 20260508070151 | 39 | 2 | 0.0 | 0.0 | 0.00 | 0.00 | 0.00 | 87 | |
| 20260508065647 | 39 | 12 | 0.0 | 0.0 | 0.00 | 0.00 | 0.00 | 87 | |
| 20260508065145 | 39 | 23 | 0.0 | 0.0 | 0.00 | 0.00 | 0.00 | 87 | |
| 20260508064643 | 39 | 11 | 0.0 | 0.0 | 0.00 | 0.00 | 0.00 | 87 | |
| 20260508064141 | 39 | 2 | 0.0 | 0.0 | 0.00 | 0.00 | 0.00 | 87 | |
| 20260508063638 | 39 | 5 | 0.0 | 0.0 | 0.00 | 0.00 | 0.00 | 87 | |
| 20260508063136 | 39 | 7 | 0.0 | 0.0 | 0.00 | 0.00 | 0.00 | 87 | |
| 20260508062633 | 39 | 8 | 0.0 | 0.0 | 0.00 | 0.00 | 0.00 | 87 | |
| 20260508062129 | 39 | 3 | 0.0 | 0.0 | 0.00 | 0.00 | 0.00 | 87 | |
| 20260508061627 | 39 | 5 | 0.0 | 0.0 | 0.00 | 0.00 | 0.00 | 87 | |
| 20260508061124 | 39 | 357 | 0.0 | 0.0 | 0.00 | 0.00 | 0.00 | 87 | |
| 20260508060621 | 39 | 0 | 0.0 | 0.0 | 0.00 | 0.00 | 0.00 | 86 | |
| 20260508060118 | 39 | 19 | 0.0 | 0.0 | 0.00 | 0.00 | 0.00 | 86 | |
| 20260508055614 | 40 | 1 | 0.0 | 0.0 | 0.00 | 0.00 | 0.00 | 86 | |
| 20260508055111 | 40 | 352 | 0.0 | 0.0 | 0.00 | 0.00 | 0.00 | 85 | |
| 20260508054607 | 40 | 3 | 0.0 | 0.0 | 0.00 | 0.00 | 0.00 | 85 | |
| 20260508054105 | 40 | 12 | 0.0 | 0.0 | 0.00 | 0.00 | 0.00 | 84 | |
| 20260508053601 | 40 | 11 | 0.0 | 0.0 | 0.00 | 0.00 | 0.00 | 84 | |
| 20260508053059 | 40 | 11 | 0.0 | 0.0 | 0.00 | 0.00 | 0.00 | 84 | |
| 20260508052556 | 40 | 17 | 0.0 | 0.0 | 0.00 | 0.00 | 0.00 | 84 | |
| 20260508052054 | 40 | 11 | 0.0 | 0.0 | 0.00 | 0.00 | 0.00 | 84 | |
| 20260508051549 | 40 | 6 | 0.0 | 0.0 | 0.00 | 0.00 | 0.00 | 83 | |
| 20260508051045 | 41 | 11 | 0.0 | 0.0 | 0.00 | 0.00 | 0.00 | 83 | |
| 20260508050541 | 41 | 5 | 0.0 | 0.0 | 0.00 | 0.00 | 0.00 | 82 | |
| 20260508050039 | 41 | 12 | 0.0 | 0.0 | 0.00 | 0.00 | 0.00 | 82 | |
| 20260508045535 | 41 | 5 | 0.0 | 0.0 | 0.00 | 0.00 | 0.00 | 81 | |
| 20260508045033 | 41 | 9 | 0.0 | 0.0 | 0.00 | 0.00 | 0.00 | 79 | |
| 20260508044530 | 41 | 2 | 0.0 | 0.0 | 0.00 | 0.00 | 0.00 | 78 | |
| 20260508044026 | 40 | 1 | 0.0 | 0.0 | 0.00 | 0.00 | 0.00 | 78 | |
| 20260508043522 | 40 | 0 | 0.0 | 0.0 | 0.00 | 0.00 | 0.00 | 78 | |
| 20260508043020 | 39 | 359 | 0.0 | 0.0 | 0.00 | 0.00 | 0.00 | 78 | |
| 20260508042516 | 39 | 1 | 0.0 | 0.0 | 0.00 | 0.00 | 0.00 | 77 | |
| 20260508042014 | 40 | 2 | 0.0 | 0.0 | 0.00 | 0.00 | 0.00 | 77 | |
| 20260508041510 | 40 | 2 | 0.0 | 0.0 | 0.00 | 0.00 | 0.00 | 76 | |
| 20260508041007 | 41 | 9 | 0.0 | 0.0 | 0.00 | 0.00 | 0.00 | 76 | |
| 20260508040504 | 41 | 5 | 0.0 | 0.0 | 0.00 | 0.00 | 0.00 | 75 | |
| 20260508040001 | 41 | 5 | 0.0 | 0.0 | 0.00 | 0.03 | 0.03 | 74 | |
| 20260508035458 | 41 | 358 | 0.0 | 0.0 | 0.00 | 0.03 | 0.03 | 74 | |
| 20260508034955 | 41 | 11 | 0.0 | 0.0 | 0.00 | 0.03 | 0.03 | 73 | |
| 20260508034452 | 41 | 17 | 0.0 | 0.0 | 0.00 | 0.03 | 0.03 | 74 | |
| 20260508033949 | 42 | 9 | 0.0 | 0.0 | 0.00 | 0.03 | 0.03 | 74 | |
| 20260508033447 | 42 | 15 | 0.0 | 0.0 | 0.00 | 0.03 | 0.03 | 74 | |
| 20260508032944 | 42 | 6 | 0.0 | 0.0 | 0.00 | 0.03 | 0.03 | 74 | |
| 20260508032441 | 42 | 5 | 0.0 | 0.0 | 0.00 | 0.03 | 0.03 | 75 | |
| 20260508031938 | 42 | 8 | 0.0 | 0.0 | 0.00 | 0.03 | 0.03 | 75 | |
| 20260508031436 | 43 | 23 | 0.0 | 0.0 | 0.00 | 0.03 | 0.03 | 75 | |
| 20260508030931 | 43 | 16 | 0.0 | 0.0 | 0.00 | 0.03 | 0.03 | 75 | |
| 20260508030429 | 43 | 26 | 0.0 | 0.0 | 0.00 | 0.03 | 0.03 | 76 | |
| 20260508025926 | 43 | 12 | 0.0 | 2.0 | 0.00 | 0.03 | 0.03 | 76 | |
| 20260508025422 | 44 | 12 | 0.0 | 0.0 | 0.00 | 0.03 | 0.03 | 76 | |
| 20260508024919 | 44 | 30 | 1.0 | 1.0 | 0.00 | 0.03 | 0.03 | 76 | |
| 20260508024416 | 44 | 12 | 0.0 | 0.0 | 0.00 | 0.03 | 0.03 | 76 | |
| 20260508023912 | 44 | 355 | 0.0 | 2.0 | 0.00 | 0.03 | 0.03 | 76 | |
| 20260508023409 | 44 | 21 | 1.0 | 1.0 | 0.00 | 0.03 | 0.03 | 76 | |
| 20260508022906 | 44 | 344 | 0.0 | 1.0 | 0.00 | 0.03 | 0.03 | 76 | |
| 20260508022402 | 44 | 34 | 0.0 | 0.0 | 0.00 | 0.03 | 0.03 | 76 | |
| 20260508021859 | 45 | 35 | 1.0 | 2.0 | 0.00 | 0.03 | 0.03 | 76 | |
| 20260508021355 | 45 | 10 | 1.0 | 2.0 | 0.00 | 0.03 | 0.03 | 76 | |
| 20260508020851 | 44 | 319 | 0.0 | 5.0 | 0.00 | 0.03 | 0.03 | 76 | |
| 20260508020349 | 44 | 339 | 0.0 | 2.0 | 0.00 | 0.03 | 0.03 | 76 | |
| 20260508015846 | 44 | 20 | 2.0 | 2.0 | 0.00 | 0.03 | 0.03 | 76 | |
| 20260508015344 | 44 | 357 | 0.0 | 1.0 | 0.00 | 0.03 | 0.03 | 76 | |
| 20260508014840 | 44 | 335 | 0.0 | 1.0 | 0.00 | 0.03 | 0.03 | 76 | |
| 20260508014337 | 44 | 7 | 0.0 | 0.0 | 0.00 | 0.03 | 0.03 | 75 | |
| 20260508013837 | 44 | 250 | 0.0 | 1.0 | 0.00 | 0.03 | 0.03 | 76 | |
| 20260508013334 | 44 | 343 | 1.0 | 1.0 | 0.00 | 0.03 | 0.03 | 76 | |
| 20260508012832 | 44 | 4 | 0.0 | 0.0 | 0.00 | 0.03 | 0.03 | 76 | |
| 20260508012329 | 44 | 12 | 0.0 | 0.0 | 0.00 | 0.03 | 0.03 | 76 | |
| 20260508011827 | 44 | 341 | 0.0 | 1.0 | 0.00 | 0.03 | 0.03 | 76 | |
| 20260508011324 | 44 | 326 | 0.0 | 2.0 | 0.00 | 0.03 | 0.03 | 75 | |
| 20260508010821 | 44 | 2 | 0.0 | 1.0 | 0.00 | 0.03 | 0.03 | 75 | |
| 20260508010319 | 44 | 280 | 0.0 | 0.0 | 0.00 | 0.03 | 0.03 | 75 | |
| 20260508005815 | 44 | 53 | 0.0 | 0.0 | 0.00 | 0.03 | 0.03 | 74 | |
| 20260508005312 | 44 | 15 | 0.0 | 0.0 | 0.00 | 0.03 | 0.03 | 74 | |
| 20260508004808 | 45 | 357 | 0.0 | 1.0 | 0.00 | 0.03 | 0.03 | 73 | |
| 20260508004304 | 45 | 22 | 0.0 | 0.0 | 0.00 | 0.03 | 0.03 | 73 | |
| 20260508003801 | 45 | 12 | 0.0 | 0.0 | 0.00 | 0.03 | 0.03 | 73 | |
| 20260508003259 | 45 | 5 | 0.0 | 1.0 | 0.00 | 0.03 | 0.03 | 72 | |
| 20260508002755 | 45 | 325 | 0.0 | 1.0 | 0.00 | 0.03 | 0.03 | 73 | |
| 20260508002252 | 45 | 359 | 0.0 | 1.0 | 0.00 | 0.03 | 0.03 | 72 | |
| 20260508001748 | 45 | 353 | 0.0 | 1.0 | 0.00 | 0.03 | 0.03 | 71 | |
| 20260508001244 | 46 | 19 | 0.0 | 1.0 | 0.00 | 0.03 | 0.03 | 72 | |
| 20260508000740 | 46 | 21 | 0.0 | 1.0 | 0.00 | 0.03 | 0.03 | 71 | |
| 20260508000238 | 46 | 335 | 1.0 | 2.0 | 0.00 | 0.03 | 0.03 | 71 | |
| 20260507235734 | 46 | 19 | 0.0 | 2.0 | 0.00 | 0.03 | 0.03 | 71 | |
| 20260507235232 | 46 | 19 | 0.0 | 2.0 | 0.00 | 0.03 | 0.03 | 71 | |
| 20260507234728 | 46 | 284 | 1.0 | 5.0 | 0.00 | 0.03 | 0.03 | 70 | |
| 20260507234225 | 46 | 43 | 1.0 | 2.0 | 0.00 | 0.03 | 0.03 | 70 | |
| 20260507233721 | 46 | 29 | 3.0 | 6.0 | 0.00 | 0.03 | 0.03 | 70 | |
| 20260507233219 | 46 | 30 | 3.0 | 5.0 | 0.00 | 0.03 | 0.03 | 69 | |
| 20260507232716 | 46 | 4 | 3.0 | 6.0 | 0.00 | 0.03 | 0.03 | 67 | |
| 20260507232213 | 47 | 72 | 1.0 | 7.0 | 0.00 | 0.03 | 0.03 | 67 | |
| 20260507231710 | 48 | 42 | 2.0 | 9.0 | 0.00 | 0.03 | 0.03 | 65 | |
| 20260507231207 | 48 | 37 | 1.0 | 2.0 | 0.00 | 0.03 | 0.03 | 63 | |
| 20260507230704 | 48 | 41 | 0.0 | 3.0 | 0.00 | 0.03 | 0.03 | 62 | |
| 20260507230201 | 48 | 43 | 3.0 | 5.0 | 0.00 | 0.03 | 0.03 | 63 | |
| 20260507225700 | 48 | 46 | 1.0 | 3.0 | 0.00 | 0.03 | 0.03 | 62 | |
| 20260507225157 | 48 | 57 | 5.0 | 7.0 | 0.00 | 0.03 | 0.03 | 61 | |
| 20260507224653 | 49 | 31 | 3.0 | 8.0 | 0.00 | 0.03 | 0.03 | 59 | |
| 20260507224149 | 49 | 42 | 1.0 | 5.0 | 0.00 | 0.03 | 0.03 | 58 | |
| 20260507223645 | 49 | 352 | 0.0 | 5.0 | 0.00 | 0.03 | 0.03 | 59 | |
| 20260507223143 | 50 | 54 | 4.0 | 8.0 | 0.00 | 0.03 | 0.03 | 56 | |
| 20260507222639 | 50 | 75 | 3.0 | 5.0 | 0.00 | 0.03 | 0.03 | 54 | |
| 20260507222136 | 50 | 96 | 4.0 | 6.0 | 0.00 | 0.03 | 0.03 | 54 | |
| 20260507221632 | 50 | 85 | 1.0 | 8.0 | 0.00 | 0.03 | 0.03 | 53 | |
| 20260507221129 | 50 | 355 | 0.0 | 7.0 | 0.00 | 0.03 | 0.03 | 54 | |
| 20260507220626 | 50 | 16 | 3.0 | 8.0 | 0.00 | 0.03 | 0.03 | 54 | |
| 20260507220124 | 51 | 34 | 3.0 | 5.0 | 0.00 | 0.03 | 0.03 | 53 | |
| 20260507215619 | 51 | 10 | 0.0 | 2.0 | 0.00 | 0.03 | 0.03 | 54 | |
| 20260507215117 | 51 | 39 | 3.0 | 5.0 | 0.00 | 0.03 | 0.03 | 54 | |
| 20260507214614 | 51 | 80 | 1.0 | 2.0 | 0.00 | 0.03 | 0.03 | 53 | |
| 20260507214111 | 51 | 32 | 0.0 | 6.0 | 0.00 | 0.03 | 0.03 | 53 | |
| 20260507213607 | 51 | 28 | 2.0 | 9.0 | 0.00 | 0.03 | 0.03 | 52 | |
| 20260507213104 | 52 | 77 | 4.0 | 8.0 | 0.00 | 0.03 | 0.03 | 51 | |
| 20260507212600 | 51 | 22 | 1.0 | 5.0 | 0.00 | 0.03 | 0.03 | 54 | |
| 20260507212057 | 51 | 38 | 1.0 | 5.0 | 0.00 | 0.03 | 0.03 | 55 | |
| 20260507211554 | 51 | 25 | 1.0 | 5.0 | 0.00 | 0.03 | 0.03 | 54 | |
| 20260507211050 | 51 | 355 | 1.0 | 7.0 | 0.00 | 0.03 | 0.03 | 55 | |
| 20260507210547 | 51 | 49 | 1.0 | 5.0 | 0.00 | 0.03 | 0.03 | 55 | |
| 20260507210044 | 51 | 50 | 3.0 | 6.0 | 0.00 | 0.03 | 0.03 | 55 | |
| 20260507205540 | 52 | 357 | 0.0 | 5.0 | 0.00 | 0.03 | 0.03 | 55 | |
| 20260507205037 | 52 | 105 | 3.0 | 7.0 | 0.00 | 0.03 | 0.03 | 52 | |
| 20260507204533 | 53 | 24 | 1.0 | 2.0 | 0.00 | 0.03 | 0.03 | 49 | |
| 20260507204031 | 53 | 15 | 0.0 | 3.0 | 0.00 | 0.03 | 0.03 | 51 | |
| 20260507203529 | 53 | 1 | 1.0 | 7.0 | 0.00 | 0.03 | 0.03 | 50 | |
| 20260507203026 | 53 | 335 | 0.0 | 1.0 | 0.00 | 0.03 | 0.03 | 51 | |
| 20260507202521 | 53 | 341 | 3.0 | 6.0 | 0.00 | 0.03 | 0.03 | 50 | |
| 20260507202018 | 54 | 50 | 0.0 | 3.0 | 0.00 | 0.03 | 0.03 | 51 | |
| 20260507201514 | 54 | 52 | 1.0 | 3.0 | 0.00 | 0.03 | 0.03 | 49 | |
| 20260507201010 | 53 | 45 | 4.0 | 7.0 | 0.00 | 0.03 | 0.03 | 50 | |
| 20260507200505 | 53 | 353 | 2.0 | 7.0 | 0.00 | 0.03 | 0.03 | 50 | |
| 20260507200002 | 53 | 26 | 2.0 | 2.0 | 0.00 | 0.03 | 0.03 | 51 | |
| 20260507195459 | 53 | 69 | 1.0 | 1.0 | 0.00 | 0.03 | 0.03 | 53 | |
| 20260507194956 | 52 | 45 | 3.0 | 7.0 | 0.00 | 0.03 | 0.03 | 53 | |
| 20260507194453 | 54 | 33 | 3.0 | 5.0 | 0.00 | 0.03 | 0.03 | 50 | |
| 20260507193948 | 53 | 351 | 1.0 | 2.0 | 0.00 | 0.03 | 0.03 | 52 | |
| 20260507193446 | 51 | 359 | 3.0 | 5.0 | 0.00 | 0.03 | 0.03 | 54 | |
| 20260507192942 | 51 | 12 | 1.0 | 5.0 | 0.00 | 0.03 | 0.03 | 56 | |
| 20260507192438 | 50 | 20 | 1.0 | 5.0 | 0.00 | 0.03 | 0.03 | 58 | |
| 20260507191936 | 50 | 145 | 3.0 | 6.0 | 0.00 | 0.03 | 0.03 | 59 | |
| 20260507191432 | 50 | 353 | 3.0 | 5.0 | 0.00 | 0.03 | 0.03 | 61 | |
| 20260507190928 | 50 | 355 | 1.0 | 5.0 | 0.00 | 0.03 | 0.03 | 65 | |
| 20260507190426 | 50 | 92 | 1.0 | 8.0 | 0.00 | 0.03 | 0.03 | 62 | |
| 20260507185925 | 50 | 82 | 5.0 | 10.0 | 0.00 | 0.03 | 0.03 | 62 | |
| 20260507185422 | 52 | 53 | 2.0 | 5.0 | 0.00 | 0.03 | 0.03 | 54 | |
| 20260507184919 | 52 | 50 | 4.0 | 6.0 | 0.00 | 0.03 | 0.03 | 55 | |
| 20260507184416 | 51 | 1 | 1.0 | 9.0 | 0.00 | 0.03 | 0.03 | 57 | |
| 20260507183914 | 51 | 30 | 2.0 | 7.0 | 0.00 | 0.03 | 0.03 | 55 | |
| 20260507183410 | 51 | 23 | 4.0 | 6.0 | 0.00 | 0.03 | 0.03 | 56 | |
| 20260507182908 | 51 | 69 | 2.0 | 11.0 | 0.00 | 0.03 | 0.03 | 58 | |
| 20260507182403 | 52 | 38 | 1.0 | 3.0 | 0.00 | 0.03 | 0.03 | 56 | |
| 20260507181900 | 52 | 76 | 2.0 | 3.0 | 0.00 | 0.03 | 0.03 | 55 | |
| 20260507181356 | 52 | 12 | 1.0 | 7.0 | 0.00 | 0.03 | 0.03 | 55 | |
| 20260507180853 | 53 | 43 | 3.0 | 6.0 | 0.00 | 0.03 | 0.03 | 53 | |
| 20260507180350 | 53 | 18 | 4.0 | 6.0 | 0.00 | 0.03 | 0.03 | 52 | |
| 20260507175845 | 53 | 334 | 1.0 | 3.0 | 0.00 | 0.03 | 0.03 | 52 | |
| 20260507175343 | 53 | 37 | 0.0 | 3.0 | 0.00 | 0.03 | 0.03 | 51 | |
| 20260507174840 | 53 | 137 | 1.0 | 8.0 | 0.00 | 0.03 | 0.03 | 52 | |
| 20260507174338 | 52 | 68 | 1.0 | 7.0 | 0.00 | 0.03 | 0.03 | 54 | |
| 20260507173835 | 52 | 18 | 2.0 | 7.0 | 0.00 | 0.03 | 0.03 | 54 | |
| 20260507173332 | 52 | 354 | 0.0 | 8.0 | 0.00 | 0.03 | 0.03 | 53 | |
| 20260507172828 | 52 | 113 | 1.0 | 3.0 | 0.00 | 0.03 | 0.03 | 52 | |
| 20260507172325 | 52 | 352 | 0.0 | 5.0 | 0.00 | 0.03 | 0.03 | 52 | |
| 20260507171821 | 53 | 11 | 1.0 | 3.0 | 0.00 | 0.03 | 0.03 | 52 | |
| 20260507171318 | 53 | 84 | 0.0 | 2.0 | 0.00 | 0.03 | 0.03 | 51 | |
| 20260507170815 | 53 | 70 | 2.0 | 3.0 | 0.00 | 0.03 | 0.03 | 50 | |
| 20260507170311 | 53 | 294 | 1.0 | 2.0 | 0.00 | 0.03 | 0.03 | 53 | |
| 20260507165807 | 53 | 356 | 0.0 | 6.0 | 0.00 | 0.03 | 0.03 | 52 | |
| 20260507165306 | 53 | 49 | 1.0 | 7.0 | 0.00 | 0.03 | 0.03 | 52 | |
| 20260507164759 | 53 | 89 | 2.0 | 5.0 | 0.00 | 0.03 | 0.03 | 52 | |
| 20260507164257 | 52 | 7 | 2.0 | 8.0 | 0.00 | 0.03 | 0.03 | 51 | |
| 20260507163754 | 53 | 60 | 3.0 | 3.0 | 0.00 | 0.03 | 0.03 | 53 | |
| 20260507163252 | 52 | 349 | 0.0 | 1.0 | 0.00 | 0.03 | 0.03 | 54 | |
| 20260507162747 | 52 | 296 | 0.0 | 2.0 | 0.00 | 0.03 | 0.03 | 52 | |
| 20260507162243 | 51 | 333 | 1.0 | 3.0 | 0.00 | 0.03 | 0.03 | 52 | |
| 20260507161741 | 52 | 335 | 1.0 | 3.0 | 0.00 | 0.03 | 0.03 | 51 | |
| 20260507161237 | 54 | 243 | 3.0 | 9.0 | 0.00 | 0.03 | 0.03 | 49 | |
| 20260507160733 | 55 | 311 | 1.0 | 7.0 | 0.00 | 0.03 | 0.03 | 48 | |
| 20260507160229 | 54 | 34 | 3.0 | 3.0 | 0.00 | 0.03 | 0.03 | 50 | |
| 20260507155725 | 53 | 352 | 1.0 | 5.0 | 0.00 | 0.03 | 0.03 | 53 | |
| 20260507155221 | 53 | 321 | 1.0 | 5.0 | 0.00 | 0.03 | 0.03 | 58 | |
| 20260507154719 | 51 | 28 | 0.0 | 2.0 | 0.00 | 0.03 | 0.03 | 55 | |
| 20260507154216 | 51 | 15 | 1.0 | 6.0 | 0.00 | 0.03 | 0.03 | 55 | |
| 20260507153712 | 53 | 65 | 0.0 | 5.0 | 0.00 | 0.03 | 0.03 | 53 | |
| 20260507153209 | 53 | 349 | 0.0 | 2.0 | 0.00 | 0.03 | 0.03 | 55 | |
| 20260507152705 | 52 | 329 | 0.0 | 2.0 | 0.00 | 0.03 | 0.03 | 54 | |
| 20260507152201 | 52 | 331 | 2.0 | 5.0 | 0.00 | 0.03 | 0.03 | 54 | |
| 20260507151657 | 52 | 2 | 2.0 | 6.0 | 0.00 | 0.03 | 0.03 | 55 |